Terminal Aerodrome Forecast
Issued by NWS Sioux Falls, SD

Home | Current Version | Previous Version | Text Only | Print | Product List | Glossary On
Versions: 1 2 3 4 5 6 7 8 9 10 11 12 13 14 15 16 17
000
FTUS43 KFSD 261939 AAA
TAFSUX
TAF AMD
KSUX 261939Z 2620/2718 08010KT P6SM VCSH SCT015 BKN035
     FM262300 03010KT P6SM BKN040
     FM270600 01006KT P6SM SCT120 SCT200
     FM271200 02009KT P6SM FEW250=

USA.gov is the U.S. government's official web portal to all federal, state and local government web resources and services.